Terminal Aerodrome Forecast
Issued by NWS Knoxville/Tri Cities, TN

Home | Current Version | Previous Version | Text Only | Print | Product List | Glossary On
Versions: 1 2 3 4 5 6 7 8 9 10 11 12
000
FTUS44 KMRX 130540
TAFTYS
TAF
KTYS 130540Z 1306/1406 28006KT P6SM SKC
     FM131500 22008KT P6SM FEW200
     FM132100 22012G20KT P6SM SCT100 BKN250
     FM140100 23012G20KT P6SM SCT080 BKN150=

USA.gov is the U.S. government's official web portal to all federal, state and local government web resources and services.